createdAt,value
2022-11-30T00:01:45.671Z,4.90
2022-11-30T00:04:13.646Z,3.10
2022-11-30T00:06:44.068Z,3.60
2022-11-30T00:09:11.418Z,4.70
2022-11-30T00:11:39.083Z,4.90
2022-11-30T00:14:07.868Z,4.70
2022-11-30T00:16:40.444Z,5.90
2022-11-30T00:19:07.800Z,5.60
2022-11-30T00:21:35.360Z,7.90
2022-11-30T00:24:06.943Z,6.30
2022-11-30T00:26:34.776Z,4.60
2022-11-30T00:29:02.541Z,5.60
2022-11-30T00:31:31.246Z,4.70
2022-11-30T00:33:58.785Z,6.40
2022-11-30T00:36:26.856Z,5.30
2022-11-30T00:38:55.349Z,5.40
2022-11-30T00:41:23.407Z,5.40
2022-11-30T00:43:51.100Z,8.30
2022-11-30T00:46:18.786Z,5.50
2022-11-30T00:48:47.417Z,3.20
2022-11-30T00:51:14.982Z,4.40
2022-11-30T00:53:42.946Z,6.30
2022-11-30T00:56:10.710Z,7.60
2022-11-30T00:58:38.474Z,6.60
2022-11-30T01:01:06.989Z,7.40
2022-11-30T01:03:34.636Z,7.60
2022-11-30T01:06:04.425Z,7.70
2022-11-30T01:08:32.191Z,6.60
2022-11-30T01:11:21.562Z,4.20
2022-11-30T01:13:49.119Z,4.20
2022-11-30T01:16:27.254Z,4.90
2022-11-30T01:18:54.787Z,5.40
2022-11-30T01:21:24.498Z,6.70
2022-11-30T01:23:52.365Z,6.50
2022-11-30T01:26:20.229Z,6.00
2022-11-30T01:28:52.812Z,4.90
2022-11-30T01:31:21.061Z,3.80
2022-11-30T01:33:52.956Z,5.20
2022-11-30T01:36:25.827Z,5.10
2022-11-30T01:38:55.535Z,6.80
2022-11-30T01:41:29.123Z,6.50
2022-11-30T01:44:20.166Z,6.90
2022-11-30T01:46:53.949Z,5.10
2022-11-30T01:49:28.776Z,5.60
2022-11-30T01:52:02.379Z,3.40
2022-11-30T01:54:36.793Z,4.80
2022-11-30T01:57:30.477Z,3.60
2022-11-30T02:02:32.758Z,3.80
2022-11-30T02:05:00.316Z,5.10
2022-11-30T02:07:27.830Z,5.20
2022-11-30T02:09:55.943Z,5.10
2022-11-30T02:13:07.979Z,2.80
2022-11-30T02:15:52.509Z,3.80
2022-11-30T02:18:40.543Z,3.60
2022-11-30T02:21:26.026Z,4.70
2022-11-30T02:24:18.572Z,5.60
2022-11-30T02:26:49.338Z,4.60
2022-11-30T02:29:27.507Z,3.90
2022-11-30T02:32:03.464Z,4.20
2022-11-30T02:34:31.541Z,4.20
2022-11-30T02:36:59.298Z,3.80
2022-11-30T02:39:26.857Z,6.30
2022-11-30T02:41:54.333Z,5.60
2022-11-30T02:44:23.915Z,5.80
2022-11-30T02:47:11.855Z,5.20
2022-11-30T02:49:48.734Z,3.60
2022-11-30T02:52:16.502Z,4.70
2022-11-30T02:54:44.306Z,4.10
2022-11-30T02:57:12.129Z,4.70
2022-11-30T02:59:39.793Z,5.00
2022-11-30T03:02:07.347Z,4.70
2022-11-30T03:04:35.111Z,4.30
2022-11-30T03:07:02.772Z,4.60
2022-11-30T03:09:30.434Z,5.70
2022-11-30T03:11:57.993Z,5.40
2022-11-30T03:14:25.557Z,6.00
2022-11-30T03:16:53.215Z,6.40
2022-11-30T03:19:20.693Z,5.60
2022-11-30T03:21:48.232Z,5.10
2022-11-30T03:24:15.733Z,4.70
2022-11-30T03:26:43.768Z,3.40
2022-11-30T03:29:11.216Z,4.20
2022-11-30T03:31:38.672Z,5.30
2022-11-30T03:34:07.767Z,4.10
2022-11-30T03:36:35.328Z,5.60
2022-11-30T03:39:02.989Z,5.80
2022-11-30T03:41:30.544Z,6.50
2022-11-30T03:43:58.721Z,6.70
2022-11-30T03:46:27.256Z,3.90
2022-11-30T03:48:54.760Z,4.40
2022-11-30T03:51:22.334Z,5.90
2022-11-30T03:53:50.183Z,4.70
2022-11-30T03:56:17.988Z,4.20
2022-11-30T03:58:45.506Z,5.60
2022-11-30T04:01:14.938Z,5.10
2022-11-30T04:03:42.785Z,3.40
2022-11-30T04:06:11.564Z,4.30
2022-11-30T04:08:39.236Z,4.60
2022-11-30T04:11:07.317Z,5.00
2022-11-30T04:13:35.880Z,7.20
2022-11-30T04:16:03.489Z,7.90
2022-11-30T04:18:32.125Z,11.20
2022-11-30T04:20:59.989Z,10.40
2022-11-30T04:23:35.433Z,14.10
2022-11-30T04:26:05.042Z,6.20
2022-11-30T04:28:32.808Z,6.10
2022-11-30T04:31:00.747Z,5.90
2022-11-30T04:33:28.436Z,5.80
2022-11-30T04:35:57.939Z,7.40
2022-11-30T04:38:25.500Z,6.30
2022-11-30T04:40:53.371Z,8.00
2022-11-30T04:43:20.719Z,6.00
2022-11-30T04:45:48.592Z,5.20
2022-11-30T04:48:16.664Z,3.90
2022-11-30T04:50:44.730Z,5.50
2022-11-30T04:53:12.191Z,4.40
2022-11-30T04:55:40.052Z,5.90
2022-11-30T04:58:07.822Z,7.20
2022-11-30T05:00:35.785Z,6.20
2022-11-30T05:03:03.443Z,6.10
2022-11-30T05:05:31.308Z,6.50
2022-11-30T05:07:59.561Z,7.70
2022-11-30T05:10:27.774Z,8.20
2022-11-30T05:12:56.432Z,20.00
2022-11-30T05:15:23.803Z,16.10
2022-11-30T05:17:51.458Z,24.10
2022-11-30T05:20:18.917Z,16.00
2022-11-30T05:22:46.391Z,5.40
2022-11-30T05:25:14.340Z,5.30
2022-11-30T05:27:41.902Z,5.20
2022-11-30T05:30:10.175Z,11.20
2022-11-30T05:32:38.249Z,10.50
2022-11-30T05:35:06.535Z,9.20
2022-11-30T05:37:34.286Z,10.20
2022-11-30T05:40:01.748Z,6.60
2022-11-30T05:42:29.815Z,4.30
2022-11-30T05:44:57.475Z,3.50
2022-11-30T05:47:25.271Z,6.70
2022-11-30T05:49:52.799Z,5.20
2022-11-30T05:52:20.257Z,5.00
2022-11-30T05:54:48.118Z,5.60
2022-11-30T05:57:15.987Z,5.00
2022-11-30T05:59:43.547Z,4.90
2022-11-30T06:02:11.200Z,4.10
2022-11-30T06:04:39.178Z,4.80
2022-11-30T06:07:11.373Z,6.10
2022-11-30T06:09:39.623Z,5.00
2022-11-30T06:12:07.800Z,4.00
2022-11-30T06:14:37.604Z,5.50
2022-11-30T06:17:05.270Z,6.70
2022-11-30T06:19:32.938Z,4.70
2022-11-30T06:22:00.588Z,5.80
2022-11-30T06:24:28.046Z,6.20
2022-11-30T06:26:55.501Z,7.00
2022-11-30T06:29:23.779Z,5.80
2022-11-30T06:31:51.739Z,6.40
2022-11-30T06:34:19.616Z,5.80
2022-11-30T06:36:47.379Z,6.20
2022-11-30T06:39:31.456Z,6.80
2022-11-30T06:42:05.229Z,4.30
2022-11-30T06:44:32.702Z,6.30
2022-11-30T06:47:00.244Z,4.50
2022-11-30T06:49:28.008Z,5.40
2022-11-30T06:51:55.872Z,7.70
2022-11-30T06:54:23.536Z,8.60
2022-11-30T06:56:51.118Z,8.30
2022-11-30T06:59:18.859Z,8.10
2022-11-30T07:01:46.521Z,5.90
2022-11-30T07:04:14.676Z,5.10
2022-11-30T07:06:43.181Z,6.30
2022-11-30T07:09:13.907Z,6.00
2022-11-30T07:11:41.263Z,6.20
2022-11-30T07:14:09.335Z,5.60
2022-11-30T07:16:38.084Z,8.10
2022-11-30T07:19:05.988Z,7.10
2022-11-30T07:21:33.239Z,7.10
2022-11-30T07:24:19.842Z,5.40
2022-11-30T07:26:48.119Z,7.80
2022-11-30T07:29:15.887Z,5.50
2022-11-30T07:31:43.788Z,7.20
2022-11-30T07:34:13.164Z,8.10
2022-11-30T07:36:41.635Z,8.30
2022-11-30T07:39:09.497Z,9.90
2022-11-30T07:41:37.270Z,8.80
2022-11-30T07:44:07.698Z,20.50
2022-11-30T07:46:37.913Z,5.50
2022-11-30T07:49:09.414Z,7.30
2022-11-30T07:51:39.482Z,11.50
2022-11-30T07:54:09.166Z,9.30
2022-11-30T07:56:36.761Z,8.00
2022-11-30T07:59:04.308Z,8.20
2022-11-30T08:01:33.627Z,8.90
2022-11-30T08:04:02.299Z,15.50
2022-11-30T08:06:30.882Z,24.10
2022-11-30T08:08:59.902Z,15.60
2022-11-30T08:11:30.091Z,22.20
2022-11-30T08:13:57.959Z,14.80
2022-11-30T08:16:27.310Z,10.20
2022-11-30T08:18:56.044Z,11.60
2022-11-30T08:21:23.302Z,9.50
2022-11-30T08:23:55.696Z,7.90
2022-11-30T08:26:31.463Z,7.60
2022-11-30T08:29:01.232Z,14.10
2022-11-30T08:31:34.621Z,6.20
2022-11-30T08:34:04.815Z,5.60
2022-11-30T08:36:33.327Z,5.50
2022-11-30T08:39:04.049Z,16.80
2022-11-30T08:41:34.718Z,13.10
2022-11-30T08:44:02.251Z,11.90
2022-11-30T08:49:22.079Z,7.30
2022-11-30T08:54:42.049Z,7.90
2022-11-30T08:57:09.556Z,5.80
2022-11-30T08:59:37.681Z,4.80
2022-11-30T09:02:06.057Z,3.50
2022-11-30T09:04:34.455Z,6.70
2022-11-30T09:07:02.310Z,5.50
2022-11-30T09:09:29.965Z,7.70
2022-11-30T09:11:58.968Z,6.00
2022-11-30T09:14:27.436Z,5.60
2022-11-30T09:16:59.607Z,6.40
2022-11-30T09:19:29.315Z,4.80
2022-11-30T09:21:59.230Z,5.70
2022-11-30T09:24:30.372Z,6.90
2022-11-30T09:26:58.136Z,7.70
2022-11-30T09:29:26.312Z,6.10
2022-11-30T09:31:55.930Z,5.50
2022-11-30T09:34:24.091Z,5.60
2022-11-30T09:36:52.467Z,7.30
2022-11-30T09:39:20.027Z,4.50
2022-11-30T09:41:47.485Z,4.70
2022-11-30T09:44:36.767Z,5.90
2022-11-30T09:47:18.856Z,6.50
2022-11-30T09:49:46.925Z,6.70
2022-11-30T09:52:30.195Z,10.00
2022-11-30T09:54:58.955Z,18.30
2022-11-30T09:57:30.415Z,10.50
2022-11-30T09:59:59.379Z,10.60
2022-11-30T10:02:29.820Z,10.70
2022-11-30T10:04:58.086Z,18.00
2022-11-30T10:07:54.394Z,15.90
2022-11-30T10:10:52.428Z,8.70
2022-11-30T10:13:39.200Z,10.30
2022-11-30T10:16:31.897Z,8.20
2022-11-30T10:19:05.949Z,15.20
2022-11-30T10:21:40.788Z,19.50
2022-11-30T10:24:12.784Z,8.70
2022-11-30T10:26:45.124Z,15.00
2022-11-30T10:29:13.192Z,11.30
2022-11-30T10:31:40.855Z,9.50
2022-11-30T10:34:23.055Z,7.30
2022-11-30T10:37:14.885Z,7.10
2022-11-30T10:39:55.040Z,6.30
2022-11-30T10:42:27.823Z,6.30
2022-11-30T10:45:05.293Z,6.50
2022-11-30T10:47:36.674Z,17.60
2022-11-30T10:50:06.170Z,15.80
2022-11-30T10:52:48.365Z,15.80
2022-11-30T10:55:26.269Z,17.90
2022-11-30T10:58:27.823Z,22.10
2022-11-30T11:01:02.921Z,14.90
2022-11-30T11:03:30.624Z,9.60
2022-11-30T11:06:23.384Z,12.00
2022-11-30T11:11:27.706Z,17.50
2022-11-30T11:14:09.036Z,7.40
2022-11-30T11:17:03.887Z,10.50
2022-11-30T11:19:39.842Z,8.90
2022-11-30T11:22:20.097Z,8.10
2022-11-30T11:24:48.989Z,18.90
2022-11-30T11:27:25.371Z,16.30
2022-11-30T11:30:18.310Z,11.70
2022-11-30T11:33:12.725Z,17.60
2022-11-30T11:35:45.691Z,8.40
2022-11-30T11:38:27.479Z,10.40
2022-11-30T11:40:54.838Z,14.60
2022-11-30T11:43:23.925Z,10.30
2022-11-30T11:45:58.347Z,15.90
2022-11-30T11:48:41.675Z,11.50
2022-11-30T11:51:11.287Z,10.60
2022-11-30T11:53:54.224Z,7.90
2022-11-30T11:56:35.796Z,13.70
2022-11-30T11:59:13.893Z,8.80
2022-11-30T12:02:19.374Z,9.10
2022-11-30T12:05:03.277Z,8.60
2022-11-30T12:10:50.511Z,8.90
2022-11-30T12:13:16.657Z,24.20
2022-11-30T12:16:15.381Z,23.50
2022-11-30T12:19:06.803Z,19.30
2022-11-30T12:21:56.946Z,14.30
2022-11-30T12:24:48.984Z,12.60
2022-11-30T12:27:39.479Z,11.30
2022-11-30T12:30:23.226Z,7.50
2022-11-30T12:33:03.395Z,11.20
2022-11-30T12:35:36.871Z,8.00
2022-11-30T12:38:11.900Z,6.90
2022-11-30T13:39:56.666Z,6.30
2022-11-30T13:42:48.875Z,6.10
2022-11-30T13:45:28.445Z,8.50
2022-11-30T13:47:56.824Z,8.50
2022-11-30T13:50:44.143Z,7.10
2022-11-30T13:53:28.092Z,9.70
2022-11-30T13:55:57.909Z,8.40
2022-11-30T13:58:30.495Z,7.50
2022-11-30T14:01:03.277Z,6.10
2022-11-30T14:03:32.560Z,9.30
2022-11-30T14:06:01.557Z,8.50
2022-11-30T14:08:37.300Z,6.00
2022-11-30T14:11:17.365Z,8.50
2022-11-30T14:13:45.011Z,10.00
2022-11-30T14:16:41.096Z,10.50
2022-11-30T14:19:09.109Z,2.80
2022-11-30T14:21:36.669Z,5.30
2022-11-30T14:24:14.162Z,5.70
2022-11-30T14:26:46.634Z,5.70
2022-11-30T14:29:19.748Z,6.30
2022-11-30T14:32:05.832Z,6.90
2022-11-30T14:34:40.041Z,7.10
2022-11-30T14:37:22.955Z,7.70
2022-11-30T14:39:53.278Z,5.20
2022-11-30T14:42:28.726Z,9.40
2022-11-30T14:44:56.685Z,8.50
2022-11-30T14:47:25.167Z,7.00
2022-11-30T14:49:54.640Z,5.90
2022-11-30T14:52:44.047Z,7.10
2022-11-30T14:55:18.349Z,5.00
2022-11-30T14:58:07.232Z,5.20
2022-11-30T15:00:39.424Z,5.90
2022-11-30T15:03:20.465Z,6.10
2022-11-30T15:05:50.992Z,7.30
2022-11-30T15:08:18.345Z,5.70
2022-11-30T15:10:46.002Z,5.70
2022-11-30T15:13:15.218Z,7.00
2022-11-30T15:15:53.513Z,6.10
2022-11-30T15:18:25.065Z,8.20
2022-11-30T15:20:55.595Z,5.20
2022-11-30T15:23:23.178Z,6.60
2022-11-30T15:25:54.091Z,4.60
2022-11-30T15:28:24.414Z,6.50
2022-11-30T15:30:54.646Z,5.60
2022-11-30T15:33:23.424Z,5.60
2022-11-30T15:36:15.977Z,7.10
2022-11-30T15:38:39.227Z,4.60
2022-11-30T15:41:23.068Z,5.50
2022-11-30T15:43:52.776Z,6.70
2022-11-30T15:46:28.850Z,4.60
2022-11-30T15:49:12.787Z,4.20
2022-11-30T15:51:41.772Z,4.00
2022-11-30T15:54:09.435Z,7.60
2022-11-30T15:56:37.738Z,5.30
2022-11-30T15:59:06.511Z,7.00
2022-11-30T16:02:01.988Z,6.00
2022-11-30T16:04:57.937Z,6.20
2022-11-30T16:07:33.248Z,4.00
2022-11-30T16:10:07.289Z,4.20
2022-11-30T16:12:34.740Z,6.10
2022-11-30T16:15:03.221Z,7.60
2022-11-30T16:17:32.558Z,5.50
2022-11-30T16:20:00.084Z,4.80
2022-11-30T16:22:27.539Z,5.00
2022-11-30T16:24:55.100Z,4.00
2022-11-30T16:27:22.758Z,6.80
2022-11-30T16:29:52.560Z,7.10
2022-11-30T16:32:22.382Z,4.80
2022-11-30T16:34:49.942Z,5.40
2022-11-30T16:37:17.705Z,5.10
2022-11-30T16:39:45.626Z,6.20
2022-11-30T16:42:13.537Z,5.40
2022-11-30T16:44:41.713Z,6.00
2022-11-30T16:47:09.373Z,5.50
2022-11-30T16:49:36.867Z,7.40
2022-11-30T16:52:04.798Z,5.90
2022-11-30T16:54:32.569Z,5.20
2022-11-30T16:57:00.143Z,4.80
2022-11-30T16:59:27.579Z,6.40
2022-11-30T17:01:55.195Z,5.80
2022-11-30T17:04:24.338Z,3.50
2022-11-30T17:06:55.833Z,6.10
2022-11-30T17:09:24.817Z,7.40
2022-11-30T17:11:52.648Z,5.80
2022-11-30T17:14:21.233Z,5.20
2022-11-30T17:16:48.753Z,6.20
2022-11-30T17:19:16.656Z,7.20
2022-11-30T17:21:44.318Z,6.00
2022-11-30T17:24:14.341Z,4.70
2022-11-30T17:26:43.151Z,4.70
2022-11-30T17:29:10.679Z,6.10
2022-11-30T17:31:38.447Z,5.40
2022-11-30T17:34:08.256Z,6.30
2022-11-30T17:36:35.734Z,7.30
2022-11-30T17:39:07.678Z,6.40
2022-11-30T17:41:35.127Z,5.50
2022-11-30T17:44:02.705Z,6.10
2022-11-30T17:46:30.542Z,5.00
2022-11-30T17:48:58.427Z,5.20
2022-11-30T17:51:26.017Z,6.00
2022-11-30T17:53:53.742Z,2.70
2022-11-30T17:56:21.303Z,5.10
2022-11-30T17:58:49.174Z,6.80
2022-11-30T18:01:23.969Z,3.80
2022-11-30T18:03:52.200Z,5.00
2022-11-30T18:06:19.936Z,7.10
2022-11-30T18:08:48.111Z,4.60
2022-11-30T18:11:17.691Z,4.50
2022-11-30T18:13:51.316Z,3.50
2022-11-30T18:16:20.960Z,5.70
2022-11-30T18:18:48.896Z,4.10
2022-11-30T18:21:19.016Z,3.10
2022-11-30T18:23:46.777Z,4.40
2022-11-30T18:26:16.003Z,3.70
2022-11-30T18:28:43.536Z,5.80
2022-11-30T18:31:11.106Z,5.70
2022-11-30T18:33:38.953Z,5.70
2022-11-30T18:36:07.257Z,4.60
2022-11-30T18:38:38.012Z,6.00
2022-11-30T18:41:06.283Z,4.20
2022-11-30T18:43:35.385Z,5.90
2022-11-30T18:46:08.153Z,5.80
2022-11-30T18:48:36.700Z,6.00
2022-11-30T18:51:15.521Z,6.00
2022-11-30T18:53:42.874Z,6.10
2022-11-30T18:56:15.381Z,6.40
2022-11-30T18:58:43.424Z,9.70
2022-11-30T19:01:18.876Z,8.40
2022-11-30T19:03:51.240Z,6.70
2022-11-30T19:06:18.803Z,6.40
2022-11-30T19:08:47.584Z,7.10
2022-11-30T19:11:15.757Z,6.70
2022-11-30T19:13:48.432Z,5.90
2022-11-30T19:16:16.797Z,4.60
2022-11-30T19:18:47.135Z,6.80
2022-11-30T19:21:16.440Z,5.40
2022-11-30T19:23:44.613Z,7.70
2022-11-30T19:26:13.089Z,4.70
2022-11-30T19:28:41.470Z,5.60
2022-11-30T19:31:19.149Z,3.70
2022-11-30T19:33:48.261Z,5.80
2022-11-30T19:36:20.050Z,9.40
2022-11-30T19:38:47.575Z,8.10
2022-11-30T19:41:15.444Z,7.00
2022-11-30T19:43:47.764Z,5.00
2022-11-30T19:46:19.143Z,8.20
2022-11-30T19:48:48.178Z,5.30
2022-11-30T19:51:18.559Z,9.20
2022-11-30T19:53:46.551Z,7.50
2022-11-30T19:56:17.591Z,8.40
2022-11-30T19:58:45.683Z,6.20
2022-11-30T20:01:27.611Z,5.60
2022-11-30T20:03:56.855Z,6.80
2022-11-30T20:06:28.921Z,6.60
2022-11-30T20:08:57.131Z,5.60
2022-11-30T20:11:24.962Z,8.70
2022-11-30T20:13:52.525Z,6.20
2022-11-30T20:16:21.407Z,8.40
2022-11-30T20:19:04.738Z,5.20
2022-11-30T20:21:33.730Z,8.40
2022-11-30T20:24:03.037Z,10.80
2022-11-30T20:26:33.012Z,5.70
2022-11-30T20:29:01.732Z,7.00
2022-11-30T20:31:30.211Z,4.30
2022-11-30T20:33:58.295Z,5.50
2022-11-30T20:36:26.149Z,6.40
2022-11-30T20:38:53.708Z,5.30
2022-11-30T20:41:24.034Z,6.90
2022-11-30T20:43:52.003Z,4.90
2022-11-30T20:46:23.356Z,5.60
2022-11-30T20:48:51.828Z,5.40
2022-11-30T20:51:32.410Z,4.70
2022-11-30T20:54:02.002Z,4.60
2022-11-30T20:56:29.664Z,7.60
2022-11-30T20:59:00.602Z,6.70
2022-11-30T21:01:28.471Z,3.70
2022-11-30T21:03:56.231Z,6.10
2022-11-30T21:06:23.788Z,7.30
2022-11-30T21:08:51.451Z,5.20
2022-11-30T21:11:20.160Z,6.60
2022-11-30T21:13:49.026Z,8.80
2022-11-30T21:16:18.706Z,6.90
2022-11-30T21:18:49.572Z,5.80
2022-11-30T21:21:21.634Z,7.30
2022-11-30T21:23:49.198Z,5.70
2022-11-30T21:26:17.880Z,6.40
2022-11-30T21:28:46.671Z,4.50
2022-11-30T21:31:14.626Z,14.70
2022-11-30T21:33:48.935Z,10.00
2022-11-30T21:36:20.714Z,9.20
2022-11-30T21:38:56.082Z,7.40
2022-11-30T21:41:26.069Z,4.80
2022-11-30T21:43:53.527Z,5.10
2022-11-30T21:46:21.325Z,5.80
2022-11-30T21:48:49.871Z,8.30
2022-11-30T21:51:20.399Z,6.10
2022-11-30T21:53:55.953Z,6.60
2022-11-30T21:56:34.143Z,7.00
2022-11-30T21:59:02.029Z,7.30
2022-11-30T22:01:31.329Z,5.90
2022-11-30T22:03:59.506Z,11.40
2022-11-30T22:06:28.386Z,4.90
2022-11-30T22:08:57.286Z,5.50
2022-11-30T22:11:24.833Z,4.80
2022-11-30T22:13:53.420Z,4.80
2022-11-30T22:16:22.645Z,9.80
2022-11-30T22:18:56.584Z,7.10
2022-11-30T22:21:25.617Z,8.60
2022-11-30T22:23:54.404Z,4.50
2022-11-30T22:26:35.384Z,5.60
2022-11-30T22:29:05.813Z,3.90
2022-11-30T22:31:35.674Z,4.00
2022-11-30T22:34:03.179Z,5.30
2022-11-30T22:36:31.658Z,5.80
2022-11-30T22:39:00.752Z,4.30
2022-11-30T22:41:30.440Z,4.20
2022-11-30T22:43:58.535Z,5.80
2022-11-30T22:46:28.531Z,5.00
2022-11-30T22:48:58.544Z,6.20
2022-11-30T22:51:27.598Z,7.50
2022-11-30T22:53:55.222Z,6.50
2022-11-30T22:56:24.252Z,6.50
2022-11-30T22:58:55.982Z,8.50
2022-11-30T23:01:25.046Z,5.30
2022-11-30T23:03:55.663Z,8.10
2022-11-30T23:06:23.235Z,9.40
2022-11-30T23:08:50.999Z,8.30
2022-11-30T23:11:20.360Z,8.30
2022-11-30T23:13:47.781Z,10.00
2022-11-30T23:16:16.091Z,11.10
2022-11-30T23:18:48.309Z,4.60
2022-11-30T23:21:19.042Z,6.00
2022-11-30T23:23:47.112Z,6.80
2022-11-30T23:26:15.386Z,8.40
2022-11-30T23:28:44.069Z,8.10
2022-11-30T23:31:34.004Z,7.40
2022-11-30T23:34:00.837Z,7.70
2022-11-30T23:36:28.538Z,7.40
2022-11-30T23:38:58.107Z,9.60
2022-11-30T23:41:25.408Z,10.20
2022-11-30T23:43:53.077Z,10.30
2022-11-30T23:46:20.583Z,11.30
2022-11-30T23:48:48.500Z,3.50
2022-11-30T23:51:16.089Z,5.60
2022-11-30T23:53:43.411Z,8.80
2022-11-30T23:56:12.587Z,8.40
2022-11-30T23:58:39.741Z,6.00
